createdAt,value
2023-01-30T00:00:11.434Z,4.60
2023-01-30T00:01:19.244Z,4.75
2023-01-30T00:02:22.781Z,4.70
2023-01-30T00:03:27.035Z,4.72
2023-01-30T00:04:30.396Z,4.69
2023-01-30T00:05:33.640Z,4.74
2023-01-30T00:06:36.776Z,4.73
2023-01-30T00:07:39.761Z,4.74
2023-01-30T00:08:42.765Z,4.78
2023-01-30T00:09:47.690Z,4.82
2023-01-30T00:10:50.693Z,4.84
2023-01-30T00:11:53.688Z,4.81
2023-01-30T00:12:56.450Z,4.81
2023-01-30T00:13:59.939Z,4.85
2023-01-30T00:15:02.634Z,4.87
2023-01-30T00:16:06.110Z,4.89
2023-01-30T00:17:08.936Z,4.90
2023-01-30T00:18:11.636Z,4.93
2023-01-30T00:19:14.465Z,4.93
2023-01-30T00:20:17.677Z,4.97
2023-01-30T00:21:20.347Z,4.96
2023-01-30T00:22:23.227Z,4.97
2023-01-30T00:23:27.426Z,5.00
2023-01-30T00:24:30.900Z,5.00
2023-01-30T00:25:33.632Z,5.01
2023-01-30T00:26:39.854Z,5.05
2023-01-30T00:27:45.065Z,5.06
2023-01-30T00:28:47.721Z,5.05
2023-01-30T00:30:02.194Z,5.07
2023-01-30T00:31:06.718Z,5.11
2023-01-30T00:32:09.363Z,5.07
2023-01-30T00:33:12.002Z,5.06
2023-01-30T00:34:14.522Z,5.10
2023-01-30T00:35:17.283Z,5.11
2023-01-30T00:36:20.299Z,5.14
2023-01-30T00:37:23.051Z,5.13
2023-01-30T00:38:27.753Z,5.12
2023-01-30T00:39:30.606Z,5.14
2023-01-30T00:40:33.484Z,5.13
2023-01-30T00:41:54.726Z,5.17
2023-01-30T00:43:15.739Z,5.18
2023-01-30T00:44:37.693Z,5.18
2023-01-30T00:46:02.549Z,5.21
2023-01-30T00:47:09.079Z,5.20
2023-01-30T00:48:11.768Z,5.20
2023-01-30T00:49:14.410Z,5.23
2023-01-30T00:50:17.294Z,5.26
2023-01-30T00:51:19.940Z,5.23
2023-01-30T00:52:23.294Z,5.24
2023-01-30T00:53:27.132Z,5.25
2023-01-30T00:54:30.013Z,5.25
2023-01-30T00:55:34.221Z,5.29
2023-01-30T00:56:36.737Z,5.26
2023-01-30T00:57:39.257Z,5.32
2023-01-30T00:58:41.787Z,5.29
2023-01-30T00:59:47.546Z,5.33
2023-01-30T01:00:51.640Z,5.35
2023-01-30T01:01:54.299Z,5.36
2023-01-30T01:02:57.056Z,5.34
2023-01-30T01:04:00.384Z,5.32
2023-01-30T01:05:03.021Z,5.31
2023-01-30T01:06:05.903Z,5.31
2023-01-30T01:07:08.425Z,5.33
2023-01-30T01:08:12.273Z,5.32
2023-01-30T01:09:14.784Z,5.36
2023-01-30T01:10:17.544Z,5.35
2023-01-30T01:11:26.186Z,5.35
2023-01-30T01:12:29.911Z,5.40
2023-01-30T01:13:32.445Z,5.41
2023-01-30T01:14:35.087Z,5.41
2023-01-30T01:15:38.463Z,5.41
2023-01-30T01:16:41.202Z,5.38
2023-01-30T01:17:43.725Z,5.39
2023-01-30T01:18:47.079Z,5.42
2023-01-30T01:19:49.726Z,5.43
2023-01-30T01:20:52.486Z,5.46
2023-01-30T01:21:55.251Z,5.44
2023-01-30T01:22:58.259Z,5.41
2023-01-30T01:24:01.269Z,5.46
2023-01-30T01:25:04.129Z,5.46
2023-01-30T01:26:07.009Z,5.46
2023-01-30T01:27:10.493Z,5.50
2023-01-30T01:28:15.185Z,5.49
2023-01-30T01:29:20.341Z,5.49
2023-01-30T01:30:23.103Z,5.54
2023-01-30T01:31:26.500Z,5.56
2023-01-30T01:32:31.502Z,5.54
2023-01-30T01:33:34.266Z,5.50
2023-01-30T01:34:37.266Z,5.53
2023-01-30T01:35:42.079Z,5.57
2023-01-30T01:36:54.618Z,5.58
2023-01-30T01:37:57.908Z,5.57
2023-01-30T01:39:01.035Z,5.63
2023-01-30T01:40:24.193Z,5.64
2023-01-30T01:41:27.315Z,5.59
2023-01-30T01:42:35.118Z,5.63
2023-01-30T01:43:59.598Z,5.59
2023-01-30T01:45:20.878Z,5.61
2023-01-30T01:46:28.766Z,5.57
2023-01-30T01:47:34.765Z,5.57
2023-01-30T01:48:45.581Z,5.60
2023-01-30T01:49:48.697Z,5.51
2023-01-30T01:50:59.611Z,5.57
2023-01-30T01:52:08.147Z,5.53
2023-01-30T01:53:14.135Z,5.53
2023-01-30T01:54:29.496Z,5.54
2023-01-30T01:55:32.858Z,5.52
2023-01-30T01:56:38.859Z,5.55
2023-01-30T01:57:49.904Z,5.56
2023-01-30T01:59:02.503Z,5.58
2023-01-30T02:00:13.189Z,5.56
2023-01-30T02:01:16.330Z,5.51
2023-01-30T02:02:22.624Z,5.54
2023-01-30T02:03:31.191Z,5.59
2023-01-30T02:04:53.401Z,5.59
2023-01-30T02:06:01.594Z,5.59
2023-01-30T02:07:04.677Z,5.55
2023-01-30T02:08:22.440Z,5.61
2023-01-30T02:09:27.241Z,5.57
2023-01-30T02:10:55.443Z,5.59
2023-01-30T02:12:03.130Z,5.65
2023-01-30T02:13:08.047Z,5.62
2023-01-30T02:14:12.618Z,5.67
2023-01-30T02:15:15.909Z,5.62
2023-01-30T02:16:18.854Z,5.64
2023-01-30T02:17:21.648Z,5.68
2023-01-30T02:18:24.856Z,5.67
2023-01-30T02:19:57.979Z,5.73
2023-01-30T02:22:38.901Z,5.69
2023-01-30T02:23:53.835Z,5.77
2023-01-30T02:25:11.481Z,5.72
2023-01-30T02:26:16.764Z,5.78
2023-01-30T02:27:34.276Z,5.80
2023-01-30T02:29:00.273Z,5.81
2023-01-30T02:30:39.748Z,5.86
2023-01-30T02:32:00.561Z,5.79
2023-01-30T02:33:17.238Z,5.83
2023-01-30T02:34:31.885Z,5.85
2023-01-30T02:35:52.644Z,5.86
2023-01-30T02:37:23.601Z,5.87
2023-01-30T02:38:31.764Z,5.90
2023-01-30T02:39:56.006Z,5.89
2023-01-30T02:41:23.125Z,5.90
2023-01-30T02:42:31.646Z,5.93
2023-01-30T02:43:58.896Z,5.96
2023-01-30T02:45:29.726Z,5.98
2023-01-30T02:46:50.617Z,5.97
2023-01-30T02:47:59.853Z,5.96
2023-01-30T02:49:15.087Z,5.98
2023-01-30T02:50:30.692Z,6.00
2023-01-30T02:51:37.419Z,6.02
2023-01-30T02:52:41.353Z,5.96
2023-01-30T02:53:44.133Z,5.96
2023-01-30T02:54:47.139Z,5.99
2023-01-30T02:55:50.012Z,5.96
2023-01-30T02:56:57.698Z,6.02
2023-01-30T02:58:01.425Z,6.02
2023-01-30T02:59:08.753Z,6.05
2023-01-30T03:00:13.064Z,6.06
2023-01-30T03:01:40.347Z,6.08
2023-01-30T03:03:11.071Z,6.05
2023-01-30T03:04:49.916Z,6.13
2023-01-30T03:05:57.940Z,6.15
2023-01-30T03:07:21.702Z,6.12
2023-01-30T03:08:46.181Z,6.14
2023-01-30T03:10:18.102Z,6.10
2023-01-30T03:11:38.985Z,6.14
2023-01-30T03:13:08.508Z,6.16
2023-01-30T03:14:21.716Z,6.19
2023-01-30T03:15:28.438Z,6.17
2023-01-30T03:16:37.437Z,6.18
2023-01-30T03:17:44.760Z,6.21
2023-01-30T03:18:51.117Z,6.16
2023-01-30T03:19:55.568Z,6.20
2023-01-30T03:21:05.396Z,6.30
2023-01-30T03:22:08.158Z,6.23
2023-01-30T03:23:10.808Z,6.24
2023-01-30T03:24:14.058Z,6.30
2023-01-30T03:25:21.979Z,6.32
2023-01-30T03:26:30.042Z,6.35
2023-01-30T03:27:34.453Z,6.36
2023-01-30T03:28:38.049Z,6.37
2023-01-30T03:29:41.185Z,6.37
2023-01-30T03:30:43.960Z,6.42
2023-01-30T03:31:46.735Z,6.43
2023-01-30T03:32:49.339Z,6.39
2023-01-30T03:33:52.121Z,6.44
2023-01-30T03:34:54.858Z,6.42
2023-01-30T03:35:57.509Z,6.44
2023-01-30T03:37:00.388Z,6.45
2023-01-30T03:38:03.385Z,6.43
2023-01-30T03:39:06.275Z,6.46
2023-01-30T03:40:10.347Z,6.50
2023-01-30T03:41:14.076Z,6.49
2023-01-30T03:42:17.190Z,6.48
2023-01-30T03:43:20.332Z,6.51
2023-01-30T03:44:23.557Z,6.51
2023-01-30T03:45:26.799Z,6.54
2023-01-30T03:46:30.028Z,6.54
2023-01-30T03:47:33.159Z,6.57
2023-01-30T03:48:36.774Z,6.58
2023-01-30T03:49:39.885Z,6.61
2023-01-30T03:50:44.084Z,6.64
2023-01-30T03:51:47.210Z,6.66
2023-01-30T03:52:50.694Z,6.66
2023-01-30T03:53:56.332Z,6.67
2023-01-30T03:54:59.453Z,6.68
2023-01-30T03:56:02.850Z,6.69
2023-01-30T03:57:08.337Z,6.70
2023-01-30T03:58:11.696Z,6.73
2023-01-30T03:59:15.779Z,6.76
2023-01-30T04:00:26.142Z,6.77
2023-01-30T04:01:29.278Z,6.81
2023-01-30T04:02:32.495Z,6.79
2023-01-30T04:03:37.030Z,6.77
2023-01-30T04:04:40.867Z,6.76
2023-01-30T04:05:46.030Z,6.77
2023-01-30T04:06:49.993Z,6.75
2023-01-30T04:07:58.274Z,6.82
2023-01-30T04:09:01.520Z,6.82
2023-01-30T04:10:15.920Z,6.81
2023-01-30T04:11:19.159Z,6.86
2023-01-30T04:12:22.759Z,6.86
2023-01-30T04:13:31.403Z,6.86
2023-01-30T04:14:34.768Z,6.87
2023-01-30T04:16:20.661Z,6.97
2023-01-30T04:17:44.132Z,6.89
2023-01-30T04:19:22.421Z,6.85
2023-01-30T04:20:25.653Z,6.87
2023-01-30T04:21:30.938Z,6.85
2023-01-30T04:22:34.181Z,6.81
2023-01-30T04:23:36.823Z,6.80
2023-01-30T04:24:39.513Z,6.81
2023-01-30T04:25:42.108Z,6.80
2023-01-30T04:26:45.592Z,6.81
2023-01-30T04:27:48.522Z,6.76
2023-01-30T04:28:54.827Z,6.76
2023-01-30T04:29:58.192Z,6.74
2023-01-30T04:31:01.373Z,6.68
2023-01-30T04:32:14.089Z,6.67
2023-01-30T04:33:17.759Z,6.67
2023-01-30T04:34:20.640Z,6.65
2023-01-30T04:35:23.320Z,6.58
2023-01-30T04:36:25.961Z,6.62
2023-01-30T04:37:28.483Z,6.61
2023-01-30T04:38:32.769Z,6.65
2023-01-30T04:39:35.450Z,6.54
2023-01-30T04:40:38.088Z,6.49
2023-01-30T04:41:41.812Z,6.47
2023-01-30T04:42:45.067Z,6.50
2023-01-30T04:44:10.452Z,6.48
2023-01-30T04:45:23.445Z,6.45
2023-01-30T04:46:27.193Z,6.39
2023-01-30T04:47:29.703Z,6.37
2023-01-30T04:48:32.221Z,6.31
2023-01-30T04:49:36.653Z,6.34
2023-01-30T04:50:42.890Z,6.32
2023-01-30T04:51:45.412Z,6.29
2023-01-30T04:52:47.935Z,6.24
2023-01-30T04:53:50.677Z,6.27
2023-01-30T04:54:53.334Z,6.25
2023-01-30T04:55:55.861Z,6.23
2023-01-30T04:56:58.373Z,6.25
2023-01-30T04:58:01.136Z,6.24
2023-01-30T04:59:04.136Z,6.21
2023-01-30T05:00:12.659Z,6.19
2023-01-30T05:01:24.177Z,6.17
2023-01-30T05:02:26.945Z,6.08
2023-01-30T05:03:29.460Z,6.09
2023-01-30T05:04:31.983Z,6.02
2023-01-30T05:05:34.625Z,6.00
2023-01-30T05:06:37.512Z,6.01
2023-01-30T05:07:40.275Z,6.02
2023-01-30T05:08:43.483Z,5.99
2023-01-30T05:09:46.747Z,6.00
2023-01-30T05:10:50.240Z,6.00
2023-01-30T05:11:52.634Z,5.96
2023-01-30T05:12:55.267Z,5.93
2023-01-30T05:13:58.508Z,5.93
2023-01-30T05:15:01.413Z,5.89
2023-01-30T05:16:04.032Z,5.92
2023-01-30T05:17:06.596Z,5.87
2023-01-30T05:18:09.068Z,5.83
2023-01-30T05:19:12.799Z,5.89
2023-01-30T05:20:15.445Z,5.90
2023-01-30T05:21:25.528Z,5.88
2023-01-30T05:22:28.035Z,5.82
2023-01-30T05:23:30.801Z,5.86
2023-01-30T05:24:33.443Z,5.84
2023-01-30T05:25:35.965Z,5.85
2023-01-30T05:26:38.534Z,5.88
2023-01-30T05:27:41.123Z,5.86
2023-01-30T05:28:43.887Z,5.88
2023-01-30T05:29:46.530Z,5.94
2023-01-30T05:30:49.163Z,5.88
2023-01-30T05:31:51.768Z,5.88
2023-01-30T05:32:54.332Z,5.87
2023-01-30T05:33:56.875Z,5.85
2023-01-30T05:34:59.501Z,5.83
2023-01-30T05:36:02.501Z,5.81
2023-01-30T05:37:05.379Z,5.81
2023-01-30T05:38:08.265Z,5.78
2023-01-30T05:39:11.021Z,5.77
2023-01-30T05:40:14.029Z,5.79
2023-01-30T05:41:17.279Z,5.80
2023-01-30T05:42:20.030Z,5.80
2023-01-30T05:43:23.031Z,5.80
2023-01-30T05:44:25.920Z,5.81
2023-01-30T05:45:28.792Z,5.78
2023-01-30T05:46:31.860Z,5.79
2023-01-30T05:47:34.915Z,5.84
2023-01-30T05:48:38.040Z,5.87
2023-01-30T05:49:41.159Z,5.87
2023-01-30T05:50:44.284Z,5.89
2023-01-30T05:51:48.514Z,5.87
2023-01-30T05:52:53.045Z,5.92
2023-01-30T05:53:56.650Z,5.94
2023-01-30T05:54:59.771Z,5.96
2023-01-30T05:56:05.063Z,6.00
2023-01-30T05:57:08.295Z,6.01
2023-01-30T05:58:12.017Z,5.99
2023-01-30T05:59:15.735Z,5.96
2023-01-30T06:00:19.374Z,5.97
2023-01-30T06:01:23.900Z,5.99
2023-01-30T06:02:27.061Z,5.96
2023-01-30T06:03:30.670Z,5.96
2023-01-30T06:04:33.864Z,5.91
2023-01-30T06:05:38.906Z,5.97
2023-01-30T06:06:42.158Z,5.95
2023-01-30T06:07:45.388Z,5.96
2023-01-30T06:08:48.871Z,5.96
2023-01-30T06:09:52.112Z,5.94
2023-01-30T06:10:55.479Z,5.88
2023-01-30T06:11:58.715Z,5.84
2023-01-30T06:13:02.199Z,5.82
2023-01-30T06:14:05.323Z,5.78
2023-01-30T06:15:09.164Z,5.80
2023-01-30T06:16:14.481Z,5.79
2023-01-30T06:17:17.806Z,5.72
2023-01-30T06:18:21.047Z,5.67
2023-01-30T06:19:24.288Z,5.65
2023-01-30T06:20:27.293Z,5.63
2023-01-30T06:21:31.251Z,5.61
2023-01-30T06:22:34.253Z,5.58
2023-01-30T06:23:37.136Z,5.59
2023-01-30T06:24:40.015Z,5.57
2023-01-30T06:25:47.339Z,5.59
2023-01-30T06:26:50.245Z,5.58
2023-01-30T06:27:53.112Z,5.60
2023-01-30T06:28:55.872Z,5.58
2023-01-30T06:29:58.506Z,5.57
2023-01-30T06:31:01.521Z,5.54
2023-01-30T06:32:04.511Z,5.53
2023-01-30T06:33:08.111Z,5.55
2023-01-30T06:34:12.082Z,5.54
2023-01-30T06:35:14.836Z,5.54
2023-01-30T06:36:17.604Z,5.56
2023-01-30T06:37:20.238Z,5.55
2023-01-30T06:38:22.879Z,5.55
2023-01-30T06:39:25.525Z,5.56
2023-01-30T06:40:28.162Z,5.52
2023-01-30T06:41:30.732Z,5.50
2023-01-30T06:42:33.404Z,5.42
2023-01-30T06:43:36.210Z,5.47
2023-01-30T06:44:38.647Z,5.46
2023-01-30T06:45:41.418Z,5.45
2023-01-30T06:46:44.013Z,5.44
2023-01-30T06:47:47.495Z,5.49
2023-01-30T06:48:50.264Z,5.44
2023-01-30T06:49:52.904Z,5.47
2023-01-30T06:50:55.481Z,5.49
2023-01-30T06:51:58.072Z,5.47
2023-01-30T06:53:03.733Z,5.52
2023-01-30T06:54:08.053Z,5.51
2023-01-30T06:55:12.977Z,5.54
2023-01-30T06:56:15.496Z,5.54
2023-01-30T06:57:18.025Z,5.48
2023-01-30T06:58:20.536Z,5.52
2023-01-30T06:59:23.429Z,5.50
2023-01-30T07:00:26.177Z,5.54
2023-01-30T07:01:29.050Z,5.48
2023-01-30T07:02:35.080Z,5.53
2023-01-30T07:03:37.705Z,5.54
2023-01-30T07:04:41.816Z,5.52
2023-01-30T07:05:46.222Z,5.56
2023-01-30T07:06:48.761Z,5.54
2023-01-30T07:07:51.411Z,5.57
2023-01-30T07:08:54.145Z,5.61
2023-01-30T07:10:07.438Z,5.62
2023-01-30T07:11:10.943Z,5.61
2023-01-30T07:12:13.587Z,5.64
2023-01-30T07:13:17.190Z,5.67
2023-01-30T07:14:19.706Z,5.72
2023-01-30T07:15:22.237Z,5.75
2023-01-30T07:16:29.304Z,5.72
2023-01-30T07:17:31.844Z,5.77
2023-01-30T07:18:34.354Z,5.79
2023-01-30T07:19:36.870Z,5.81
2023-01-30T07:20:40.230Z,5.80
2023-01-30T07:21:42.764Z,5.82
2023-01-30T07:22:55.863Z,5.90
2023-01-30T07:23:59.556Z,5.81
2023-01-30T07:25:02.083Z,5.84
2023-01-30T07:26:05.802Z,5.85
2023-01-30T07:27:09.767Z,5.89
2023-01-30T07:28:12.404Z,5.86
2023-01-30T07:29:14.929Z,5.84
2023-01-30T07:30:17.689Z,5.88
2023-01-30T07:31:20.230Z,5.86
2023-01-30T07:32:22.859Z,5.88
2023-01-30T07:33:25.369Z,5.89
2023-01-30T07:34:28.134Z,5.88
2023-01-30T07:35:33.421Z,5.96
2023-01-30T07:36:35.969Z,5.96
2023-01-30T07:37:38.586Z,5.94
2023-01-30T07:38:41.338Z,5.95
2023-01-30T07:39:43.860Z,5.92
2023-01-30T07:40:46.520Z,5.98
2023-01-30T07:41:49.025Z,5.98
2023-01-30T07:43:11.832Z,6.03
2023-01-30T07:44:15.434Z,6.00
2023-01-30T07:45:18.696Z,6.00
2023-01-30T07:46:21.792Z,5.99
2023-01-30T07:47:24.677Z,5.97
2023-01-30T07:48:27.674Z,5.99
2023-01-30T07:49:30.677Z,6.03
2023-01-30T07:50:33.804Z,6.07
2023-01-30T07:51:36.799Z,6.02
2023-01-30T07:52:39.924Z,6.07
2023-01-30T07:53:43.042Z,6.06
2023-01-30T07:54:46.169Z,6.09
2023-01-30T07:55:49.288Z,6.10
2023-01-30T07:56:52.416Z,6.16
2023-01-30T07:57:55.649Z,6.14
2023-01-30T07:58:58.771Z,6.14
2023-01-30T08:00:01.893Z,6.13
2023-01-30T08:01:11.752Z,6.19
2023-01-30T08:02:14.863Z,6.12
2023-01-30T08:03:18.098Z,6.10
2023-01-30T08:04:21.279Z,6.11
2023-01-30T08:05:24.703Z,6.15
2023-01-30T08:06:27.948Z,6.16
2023-01-30T08:07:31.188Z,6.13
2023-01-30T08:08:34.317Z,6.12
2023-01-30T08:09:37.429Z,6.13
2023-01-30T08:10:40.675Z,6.15
2023-01-30T08:11:43.795Z,6.12
2023-01-30T08:12:46.795Z,6.09
2023-01-30T08:13:50.276Z,6.14
2023-01-30T08:14:53.539Z,6.13
2023-01-30T08:15:59.760Z,6.15
2023-01-30T08:17:03.006Z,6.12
2023-01-30T08:18:07.692Z,6.13
2023-01-30T08:19:11.049Z,6.17
2023-01-30T08:20:17.421Z,6.17
2023-01-30T08:21:20.905Z,6.20
2023-01-30T08:22:24.016Z,6.28
2023-01-30T08:23:27.494Z,6.29
2023-01-30T08:24:30.631Z,6.34
2023-01-30T08:25:36.247Z,6.46
2023-01-30T08:26:39.288Z,6.45
2023-01-30T08:27:42.141Z,6.38
2023-01-30T08:28:45.147Z,6.38
2023-01-30T08:29:47.789Z,6.36
2023-01-30T08:30:52.792Z,6.27
2023-01-30T08:31:59.099Z,6.36
2023-01-30T08:33:01.736Z,6.31
2023-01-30T08:34:04.471Z,6.31
2023-01-30T08:35:07.708Z,6.34
2023-01-30T08:36:10.474Z,6.36
2023-01-30T08:37:14.362Z,6.37
2023-01-30T08:38:17.827Z,6.40
2023-01-30T08:39:20.371Z,6.34
2023-01-30T08:40:23.006Z,6.41
2023-01-30T08:41:27.692Z,6.45
2023-01-30T08:42:30.453Z,6.46
2023-01-30T08:43:33.449Z,6.43
2023-01-30T08:44:35.928Z,6.52
2023-01-30T08:45:38.617Z,6.44
2023-01-30T08:46:41.254Z,6.51
2023-01-30T08:47:43.856Z,6.51
2023-01-30T08:48:49.909Z,6.45
2023-01-30T08:49:53.099Z,6.48
2023-01-30T08:50:56.960Z,6.53
2023-01-30T08:51:59.624Z,6.48
2023-01-30T08:53:09.259Z,6.51
2023-01-30T08:54:11.733Z,6.48
2023-01-30T08:55:14.261Z,6.57
2023-01-30T08:56:16.898Z,6.61
2023-01-30T08:57:19.543Z,6.77
2023-01-30T08:58:22.655Z,6.94
2023-01-30T08:59:25.302Z,7.34
2023-01-30T09:00:28.783Z,7.64
2023-01-30T09:01:31.463Z,7.75
2023-01-30T09:02:34.115Z,7.83
2023-01-30T09:03:36.918Z,7.48
2023-01-30T09:04:39.342Z,7.22
2023-01-30T09:05:41.865Z,7.15
2023-01-30T09:06:44.636Z,7.09
2023-01-30T09:07:47.169Z,7.01
2023-01-30T09:08:49.772Z,6.88
2023-01-30T09:09:52.303Z,6.64
2023-01-30T09:10:59.630Z,6.54
2023-01-30T09:12:02.273Z,6.39
2023-01-30T09:13:05.552Z,6.40
2023-01-30T09:14:08.271Z,6.33
2023-01-30T09:15:11.637Z,6.33
2023-01-30T09:16:14.340Z,6.36
2023-01-30T09:17:16.959Z,6.31
2023-01-30T09:18:19.672Z,6.21
2023-01-30T09:19:23.992Z,6.30
2023-01-30T09:20:26.991Z,6.22
2023-01-30T09:21:29.514Z,6.26
2023-01-30T09:22:32.035Z,6.23
2023-01-30T09:23:34.562Z,6.34
2023-01-30T09:24:37.073Z,6.30
2023-01-30T09:25:39.721Z,6.39
2023-01-30T09:26:44.967Z,6.42
2023-01-30T09:27:51.244Z,6.57
2023-01-30T09:28:53.767Z,6.63
2023-01-30T09:29:56.399Z,6.73
2023-01-30T09:31:00.491Z,7.03
2023-01-30T09:32:03.243Z,7.39
2023-01-30T09:33:05.651Z,7.86
2023-01-30T09:34:08.407Z,7.92
2023-01-30T09:35:11.170Z,7.98
2023-01-30T09:36:13.706Z,7.72
2023-01-30T09:37:16.346Z,7.28
2023-01-30T09:38:19.938Z,7.00
2023-01-30T09:39:22.580Z,6.95
2023-01-30T09:40:28.696Z,6.97
2023-01-30T09:41:31.222Z,6.76
2023-01-30T09:42:52.355Z,6.84
2023-01-30T09:44:06.511Z,7.01
2023-01-30T09:45:38.192Z,7.04
2023-01-30T09:47:05.794Z,6.94
2023-01-30T09:48:30.031Z,6.91
2023-01-30T09:49:50.915Z,6.96
2023-01-30T09:51:14.328Z,6.92
2023-01-30T09:52:41.561Z,6.95
2023-01-30T09:53:50.205Z,6.90
2023-01-30T09:55:16.009Z,6.80
2023-01-30T09:56:19.243Z,6.67
2023-01-30T09:57:25.122Z,6.54
2023-01-30T09:58:42.047Z,6.45
2023-01-30T09:59:49.005Z,6.43
2023-01-30T10:00:57.419Z,6.17
2023-01-30T10:02:25.372Z,6.18
2023-01-30T10:03:34.271Z,6.06
2023-01-30T10:05:00.158Z,6.01
2023-01-30T10:06:12.541Z,6.02
2023-01-30T10:07:56.857Z,6.00
2023-01-30T10:09:31.505Z,5.95
2023-01-30T10:11:17.345Z,6.01
2023-01-30T10:12:28.387Z,5.99
2023-01-30T10:13:49.151Z,5.93
2023-01-30T10:15:07.274Z,5.82
2023-01-30T10:16:22.310Z,5.62
2023-01-30T10:17:46.296Z,5.56
2023-01-30T10:19:09.084Z,5.55
2023-01-30T10:20:27.080Z,5.56
2023-01-30T10:21:30.328Z,5.52
2023-01-30T10:22:58.408Z,5.64
2023-01-30T10:24:11.129Z,5.69
2023-01-30T10:25:55.651Z,5.68
2023-01-30T10:26:59.252Z,5.73
2023-01-30T10:28:07.178Z,5.85
2023-01-30T10:29:22.425Z,6.04
2023-01-30T10:30:25.935Z,6.07
2023-01-30T10:31:35.251Z,6.14
2023-01-30T10:32:52.321Z,6.06
2023-01-30T10:34:03.702Z,5.91
2023-01-30T10:35:16.075Z,5.85
2023-01-30T10:36:41.153Z,5.80
2023-01-30T10:37:51.708Z,5.67
2023-01-30T10:38:57.477Z,5.59
2023-01-30T10:40:44.408Z,5.62
2023-01-30T10:42:11.921Z,5.57
2023-01-30T10:43:33.164Z,5.57
2023-01-30T10:44:35.810Z,5.54
2023-01-30T10:45:40.805Z,5.67
2023-01-30T10:47:13.845Z,6.42
2023-01-30T10:48:46.343Z,7.24
2023-01-30T10:50:02.529Z,7.57
2023-01-30T10:51:18.729Z,8.15
2023-01-30T10:52:27.733Z,8.41
2023-01-30T10:53:37.737Z,8.35
2023-01-30T10:54:55.973Z,8.14
2023-01-30T10:56:14.215Z,8.07
2023-01-30T10:57:35.455Z,8.32
2023-01-30T10:58:46.495Z,8.01
2023-01-30T10:59:59.706Z,7.71
2023-01-30T11:01:19.973Z,7.37
2023-01-30T11:02:36.873Z,7.05
2023-01-30T11:03:48.176Z,6.94
2023-01-30T11:04:59.557Z,6.87
2023-01-30T11:06:05.340Z,6.60
2023-01-30T11:07:08.468Z,6.48
2023-01-30T11:08:23.705Z,6.63
2023-01-30T11:09:39.547Z,6.53
2023-01-30T11:10:42.180Z,6.46
2023-01-30T11:11:55.862Z,6.46
2023-01-30T11:13:14.825Z,6.59
2023-01-30T11:14:17.838Z,6.60
2023-01-30T11:15:25.025Z,6.71
2023-01-30T11:16:28.075Z,6.87
2023-01-30T11:17:38.637Z,7.28
2023-01-30T11:20:23.387Z,7.50
2023-01-30T11:21:43.081Z,7.48
2023-01-30T11:23:00.557Z,7.38
2023-01-30T11:24:17.398Z,7.63
2023-01-30T11:25:22.203Z,7.63
2023-01-30T11:26:46.462Z,7.69
2023-01-30T11:28:06.437Z,7.73
2023-01-30T11:29:21.806Z,8.55
2023-01-30T11:30:34.397Z,9.05
2023-01-30T11:31:41.849Z,9.48
2023-01-30T11:32:48.199Z,9.82
2023-01-30T11:34:02.250Z,10.14
2023-01-30T11:35:23.723Z,10.16
2023-01-30T11:36:31.898Z,10.50
2023-01-30T11:37:39.707Z,11.09
2023-01-30T11:39:01.571Z,11.06
2023-01-30T11:40:23.872Z,11.34
2023-01-30T11:41:26.851Z,11.57
2023-01-30T11:42:32.507Z,11.96
2023-01-30T11:43:37.296Z,11.78
2023-01-30T11:44:42.458Z,11.28
2023-01-30T11:45:48.995Z,11.10
2023-01-30T11:46:51.587Z,11.42
2023-01-30T11:47:59.204Z,11.24
2023-01-30T11:49:46.631Z,11.37
2023-01-30T11:50:46.865Z,11.84
2023-01-30T11:51:54.839Z,11.76
2023-01-30T11:53:03.471Z,11.48
2023-01-30T11:54:11.646Z,10.86
2023-01-30T11:55:18.968Z,10.97
2023-01-30T11:56:27.484Z,10.77
2023-01-30T11:57:30.481Z,10.45
2023-01-30T11:58:36.961Z,10.25
2023-01-30T11:59:56.405Z,9.69
2023-01-30T12:01:00.726Z,9.51
2023-01-30T12:02:12.765Z,8.97
2023-01-30T12:03:23.490Z,9.07
2023-01-30T12:04:26.770Z,8.92
2023-01-30T12:05:37.094Z,8.95
2023-01-30T12:06:42.861Z,8.60
2023-01-30T12:07:49.216Z,8.66
2023-01-30T12:08:55.482Z,8.57
2023-01-30T12:09:59.302Z,8.56
2023-01-30T12:11:02.901Z,8.64
2023-01-30T12:12:52.353Z,8.65
2023-01-30T12:14:19.595Z,8.50
2023-01-30T12:15:29.907Z,8.27
2023-01-30T12:16:52.950Z,8.33
2023-01-30T12:18:14.208Z,8.27
2023-01-30T12:19:44.920Z,8.09
2023-01-30T12:20:56.675Z,8.07
2023-01-30T12:22:02.806Z,8.03
2023-01-30T12:23:15.881Z,7.73
2023-01-30T12:24:29.324Z,7.37
2023-01-30T12:26:07.847Z,6.96
2023-01-30T12:27:24.285Z,6.75
2023-01-30T12:28:42.769Z,6.74
2023-01-30T12:30:16.622Z,6.62
2023-01-30T12:31:23.344Z,6.53
2023-01-30T12:32:28.864Z,6.43
2023-01-30T12:33:35.341Z,6.32
2023-01-30T12:34:38.460Z,6.24
2023-01-30T12:35:50.462Z,6.28
2023-01-30T12:37:03.785Z,6.22
2023-01-30T12:38:35.585Z,6.16
2023-01-30T12:39:59.470Z,6.15
2023-01-30T12:41:23.231Z,6.08
2023-01-30T12:42:40.806Z,6.09
2023-01-30T12:44:20.766Z,6.06
2023-01-30T12:45:24.725Z,6.08
2023-01-30T12:46:27.334Z,6.45
2023-01-30T12:47:54.861Z,6.84
2023-01-30T12:49:24.971Z,7.49
2023-01-30T12:50:51.611Z,8.16
2023-01-30T12:52:17.032Z,8.20
2023-01-30T12:53:53.413Z,8.64
2023-01-30T12:55:23.138Z,9.10
2023-01-30T12:56:34.316Z,8.40
2023-01-30T12:58:06.029Z,8.31
2023-01-30T12:59:32.778Z,8.27
2023-01-30T13:01:03.255Z,8.20
2023-01-30T13:02:42.544Z,8.79
2023-01-30T13:04:11.299Z,9.25
2023-01-30T13:05:21.536Z,9.04
2023-01-30T13:06:46.951Z,8.79
2023-01-30T13:08:33.769Z,8.61
2023-01-30T13:09:51.261Z,8.18
2023-01-30T13:11:17.905Z,8.13
2023-01-30T13:12:41.923Z,8.00
2023-01-30T13:13:56.188Z,7.75
2023-01-30T13:15:24.626Z,7.63
2023-01-30T13:16:48.997Z,7.56
2023-01-30T13:18:20.792Z,7.50
2023-01-30T13:19:40.712Z,7.47
2023-01-30T13:20:52.963Z,7.47
2023-01-30T13:22:21.031Z,7.48
2023-01-30T13:23:29.672Z,7.50
2023-01-30T13:24:56.078Z,7.51
2023-01-30T13:26:13.437Z,7.60
2023-01-30T13:27:20.814Z,7.48
2023-01-30T13:28:32.073Z,7.50
2023-01-30T13:29:40.128Z,7.59
2023-01-30T13:30:46.716Z,7.53
2023-01-30T13:31:57.455Z,7.73
2023-01-30T13:33:03.758Z,7.64
2023-01-30T13:34:26.338Z,7.49
2023-01-30T13:35:36.527Z,7.46
2023-01-30T13:37:01.499Z,7.52
2023-01-30T13:38:06.642Z,7.61
2023-01-30T13:39:22.975Z,7.86
2023-01-30T13:40:29.930Z,7.89
2023-01-30T13:41:39.408Z,7.81
2023-01-30T13:43:02.703Z,7.75
2023-01-30T13:44:18.212Z,7.80
2023-01-30T13:45:24.177Z,7.72
2023-01-30T13:46:29.235Z,7.72
2023-01-30T13:47:52.137Z,7.75
2023-01-30T13:49:14.833Z,7.81
2023-01-30T13:50:54.665Z,7.76
2023-01-30T13:52:46.266Z,7.63
2023-01-30T13:53:54.796Z,7.60
2023-01-30T13:54:57.250Z,7.58
2023-01-30T13:56:40.819Z,7.65
2023-01-30T13:57:54.921Z,7.64
2023-01-30T13:59:06.359Z,7.66
2023-01-30T14:00:24.622Z,7.67
2023-01-30T14:01:59.543Z,7.57
2023-01-30T14:03:08.721Z,7.53
2023-01-30T14:04:42.581Z,7.58
2023-01-30T14:06:03.338Z,7.60
2023-01-30T14:07:24.811Z,7.56
2023-01-30T14:08:30.931Z,7.54
2023-01-30T14:09:34.294Z,7.50
2023-01-30T14:10:37.414Z,7.48
2023-01-30T14:12:09.217Z,7.43
2023-01-30T14:13:15.717Z,7.50
2023-01-30T14:14:18.946Z,7.49
2023-01-30T14:15:26.268Z,7.53
2023-01-30T14:16:42.710Z,7.53
2023-01-30T14:18:08.508Z,7.54
2023-01-30T14:19:34.444Z,7.56
2023-01-30T14:20:49.557Z,7.58
2023-01-30T14:21:57.486Z,7.58
2023-01-30T14:23:07.705Z,7.59
2023-01-30T14:24:25.318Z,7.57
2023-01-30T14:25:31.199Z,7.55
2023-01-30T14:26:50.556Z,7.55
2023-01-30T14:28:14.894Z,7.54
2023-01-30T14:29:39.606Z,7.58
2023-01-30T14:30:45.614Z,7.54
2023-01-30T14:31:51.183Z,7.55
2023-01-30T14:32:56.531Z,7.53
2023-01-30T14:33:59.773Z,7.53
2023-01-30T14:35:05.777Z,7.56
2023-01-30T14:36:34.576Z,7.56
2023-01-30T14:37:42.040Z,7.51
2023-01-30T14:38:56.541Z,7.56
2023-01-30T14:40:00.876Z,7.54
2023-01-30T14:41:03.648Z,7.53
2023-01-30T14:42:22.116Z,7.59
2023-01-30T14:43:36.518Z,7.60
2023-01-30T14:45:17.062Z,7.61
2023-01-30T14:46:20.136Z,7.50
2023-01-30T14:47:40.390Z,7.49
2023-01-30T14:49:05.279Z,7.58
2023-01-30T14:50:23.760Z,7.53
2023-01-30T14:51:36.043Z,7.47
2023-01-30T14:52:42.331Z,7.52
2023-01-30T14:54:14.778Z,7.56
2023-01-30T14:55:29.800Z,7.57
2023-01-30T14:56:56.495Z,7.59
2023-01-30T14:58:03.052Z,7.62
2023-01-30T14:59:17.861Z,7.62
2023-01-30T15:00:25.621Z,7.64
2023-01-30T15:01:28.226Z,7.64
2023-01-30T15:02:43.661Z,7.69
2023-01-30T15:03:49.184Z,7.67
2023-01-30T15:05:09.936Z,7.63
2023-01-30T15:06:12.622Z,7.60
2023-01-30T15:07:27.452Z,7.63
2023-01-30T15:08:30.100Z,7.61
2023-01-30T15:09:33.670Z,7.66
2023-01-30T15:10:52.664Z,7.77
2023-01-30T15:12:22.195Z,7.87
2023-01-30T15:14:07.779Z,7.88
2023-01-30T15:15:27.224Z,7.81
2023-01-30T15:16:42.040Z,7.77
2023-01-30T15:18:23.303Z,7.72
2023-01-30T15:19:31.918Z,7.73
2023-01-30T15:20:53.388Z,7.74
2023-01-30T15:22:40.316Z,7.68